createdAt,value
2018-03-30T00:02:05.576Z,15.89
2018-03-30T00:04:31.684Z,15.90
2018-03-30T00:07:05.034Z,15.89
2018-03-30T00:09:50.602Z,15.91
2018-03-30T00:12:16.639Z,15.87
2018-03-30T00:14:42.637Z,15.86
2018-03-30T00:17:08.690Z,15.87
2018-03-30T00:19:35.452Z,15.87
2018-03-30T00:22:02.185Z,15.86
2018-03-30T00:24:28.937Z,15.86
2018-03-30T00:26:55.726Z,15.87
2018-03-30T00:29:22.501Z,15.85
2018-03-30T00:31:48.668Z,15.84
2018-03-30T00:34:14.696Z,15.84
2018-03-30T00:36:40.724Z,15.85
2018-03-30T00:39:06.752Z,15.85
2018-03-30T00:41:32.760Z,15.84
2018-03-30T00:43:58.783Z,15.84
2018-03-30T00:46:24.835Z,15.84
2018-03-30T00:48:50.853Z,15.84
2018-03-30T00:51:16.850Z,15.84
2018-03-30T00:53:46.804Z,15.83
2018-03-30T00:56:12.871Z,15.83
2018-03-30T00:58:38.978Z,15.82
2018-03-30T01:01:05.801Z,15.81
2018-03-30T01:03:32.603Z,15.83
2018-03-30T01:05:58.631Z,15.82
2018-03-30T01:08:24.648Z,15.80
2018-03-30T01:10:50.670Z,15.81
2018-03-30T01:13:16.723Z,15.81
2018-03-30T01:15:43.785Z,15.80
2018-03-30T01:18:09.811Z,15.80
2018-03-30T01:20:36.206Z,15.79
2018-03-30T01:23:02.296Z,15.80
2018-03-30T01:25:29.054Z,15.79
2018-03-30T01:27:55.087Z,15.78
2018-03-30T01:30:21.114Z,15.78
2018-03-30T01:32:47.176Z,15.77
2018-03-30T01:35:13.236Z,15.78
2018-03-30T01:37:39.973Z,15.77
2018-03-30T01:40:06.748Z,15.78
2018-03-30T01:42:32.768Z,15.77
2018-03-30T01:44:58.849Z,15.77
2018-03-30T01:47:25.608Z,15.77
2018-03-30T01:49:52.349Z,15.76
2018-03-30T01:52:18.369Z,15.77
2018-03-30T01:54:45.186Z,15.74
2018-03-30T01:57:11.170Z,15.73
2018-03-30T01:59:37.198Z,15.75
2018-03-30T02:02:03.277Z,15.75
2018-03-30T02:04:30.082Z,15.75
2018-03-30T02:06:56.215Z,15.73
2018-03-30T02:09:22.209Z,15.74
2018-03-30T02:11:48.236Z,15.74
2018-03-30T02:14:14.241Z,15.74
2018-03-30T02:16:40.282Z,15.73
2018-03-30T02:19:06.425Z,15.73
2018-03-30T02:21:32.438Z,15.73
2018-03-30T02:23:58.437Z,15.72
2018-03-30T02:26:24.451Z,15.71
2018-03-30T02:28:50.442Z,15.72
2018-03-30T02:31:17.220Z,15.71
2018-03-30T02:33:43.274Z,15.70
2018-03-30T02:36:09.285Z,15.70
2018-03-30T02:38:35.347Z,15.71
2018-03-30T02:41:01.430Z,15.70
2018-03-30T02:43:27.462Z,15.70
2018-03-30T02:45:53.497Z,15.69
2018-03-30T02:48:19.519Z,15.69
2018-03-30T02:50:45.552Z,15.69
2018-03-30T02:53:11.677Z,15.68
2018-03-30T02:55:37.759Z,15.69
2018-03-30T02:58:03.763Z,15.68
2018-03-30T03:00:30.560Z,15.68
2018-03-30T03:02:56.651Z,15.66
2018-03-30T03:05:22.703Z,15.67
2018-03-30T03:07:48.712Z,15.68
2018-03-30T03:10:14.733Z,15.68
2018-03-30T03:12:40.752Z,15.68
2018-03-30T03:15:06.889Z,15.67
2018-03-30T03:17:32.901Z,15.66
2018-03-30T03:19:58.896Z,15.65
2018-03-30T03:22:25.670Z,15.67
2018-03-30T03:24:51.879Z,15.66
2018-03-30T03:27:18.620Z,15.66
2018-03-30T03:29:45.345Z,15.64
2018-03-30T03:32:12.201Z,15.65
2018-03-30T03:34:39.030Z,15.64
2018-03-30T03:37:05.837Z,15.64
2018-03-30T03:39:31.903Z,15.63
2018-03-30T03:41:58.649Z,15.64
2018-03-30T03:44:25.391Z,15.62
2018-03-30T03:46:52.192Z,15.62
2018-03-30T03:49:18.230Z,15.62
2018-03-30T03:51:44.276Z,15.62
2018-03-30T03:54:11.017Z,15.61
2018-03-30T03:56:37.808Z,15.61
2018-03-30T03:59:03.841Z,15.60
2018-03-30T04:01:29.908Z,15.60
2018-03-30T04:03:56.793Z,15.60
2018-03-30T04:06:22.844Z,15.60
2018-03-30T04:08:48.911Z,15.58
2018-03-30T04:11:14.936Z,15.60
2018-03-30T04:13:40.975Z,15.59
2018-03-30T04:16:07.164Z,15.59
2018-03-30T04:18:33.903Z,15.58
2018-03-30T04:21:00.661Z,15.57
2018-03-30T04:23:27.495Z,15.56
2018-03-30T04:25:54.253Z,15.55
2018-03-30T04:28:20.259Z,15.56
2018-03-30T04:30:47.110Z,15.54
2018-03-30T04:33:13.859Z,15.55
2018-03-30T04:35:39.905Z,15.54
2018-03-30T04:38:05.987Z,15.53
2018-03-30T04:40:32.892Z,15.55
2018-03-30T04:42:58.888Z,15.54
2018-03-30T04:45:24.921Z,15.54
2018-03-30T04:47:50.954Z,15.53
2018-03-30T04:50:17.186Z,15.53
2018-03-30T04:52:43.246Z,15.52
2018-03-30T04:55:10.106Z,15.52
2018-03-30T04:57:36.921Z,15.53
2018-03-30T05:00:03.695Z,15.53
2018-03-30T05:02:30.515Z,15.53
2018-03-30T05:04:58.006Z,15.51
2018-03-30T05:07:24.013Z,15.52
2018-03-30T05:09:50.840Z,15.53
2018-03-30T05:12:17.615Z,15.51
2018-03-30T05:14:43.650Z,15.51
2018-03-30T05:17:09.653Z,15.54
2018-03-30T05:19:36.463Z,15.52
2018-03-30T05:22:02.629Z,15.53
2018-03-30T05:24:28.642Z,15.53
2018-03-30T05:26:55.432Z,15.53
2018-03-30T05:29:21.497Z,15.54
2018-03-30T05:31:48.304Z,15.53
2018-03-30T05:34:15.081Z,15.53
2018-03-30T05:36:41.942Z,15.54
2018-03-30T05:39:08.672Z,15.56
2018-03-30T05:41:35.412Z,15.56
2018-03-30T05:44:02.218Z,15.55
2018-03-30T05:46:28.230Z,15.54
2018-03-30T05:48:54.270Z,15.55
2018-03-30T05:51:20.293Z,15.56
2018-03-30T05:53:46.327Z,15.55
2018-03-30T05:56:12.378Z,15.55
2018-03-30T05:58:39.125Z,15.59
2018-03-30T06:01:05.873Z,15.58
2018-03-30T06:03:32.645Z,15.58
2018-03-30T06:05:58.669Z,15.61
2018-03-30T06:08:24.691Z,15.61
2018-03-30T06:10:50.712Z,15.62
2018-03-30T06:13:16.759Z,15.67
2018-03-30T06:15:42.758Z,15.70
2018-03-30T06:18:08.793Z,15.71
2018-03-30T06:20:34.941Z,15.71
2018-03-30T06:23:00.967Z,15.72
2018-03-30T06:25:27.041Z,15.75
2018-03-30T06:27:53.038Z,15.78
2018-03-30T06:30:19.780Z,15.81
2018-03-30T06:32:46.549Z,15.83
2018-03-30T06:35:12.600Z,15.82
2018-03-30T06:37:38.624Z,15.83
2018-03-30T06:40:04.630Z,15.83
2018-03-30T06:42:30.654Z,15.83
2018-03-30T06:44:56.660Z,15.84
2018-03-30T06:47:22.695Z,15.86
2018-03-30T06:49:48.734Z,15.87
2018-03-30T06:52:14.741Z,15.87
2018-03-30T06:54:40.809Z,15.88
2018-03-30T06:57:06.998Z,15.91
2018-03-30T06:59:32.980Z,15.92
2018-03-30T07:01:59.718Z,15.92
2018-03-30T07:04:26.538Z,15.93
2018-03-30T07:06:52.561Z,15.95
2018-03-30T07:09:18.563Z,15.97
2018-03-30T07:11:44.557Z,16.00
2018-03-30T07:14:10.657Z,16.01
2018-03-30T07:16:38.225Z,16.01
2018-03-30T07:19:04.981Z,16.03
2018-03-30T07:21:31.013Z,16.03
2018-03-30T07:23:57.786Z,16.03
2018-03-30T07:26:23.796Z,16.03
2018-03-30T07:28:49.857Z,16.03
2018-03-30T07:31:15.948Z,16.05
2018-03-30T07:33:42.083Z,16.06
2018-03-30T07:36:08.094Z,16.08
2018-03-30T07:38:34.145Z,16.07
2018-03-30T07:41:02.044Z,16.38
2018-03-30T07:43:28.788Z,16.37
2018-03-30T07:45:55.512Z,16.30
2018-03-30T07:48:23.034Z,16.26
2018-03-30T07:50:49.045Z,16.24
2018-03-30T07:53:15.129Z,16.25
2018-03-30T07:55:41.234Z,16.28
2018-03-30T07:58:07.302Z,16.29
2018-03-30T08:00:33.330Z,16.36
2018-03-30T08:02:59.345Z,16.38
2018-03-30T08:05:26.098Z,16.38
2018-03-30T08:07:52.189Z,16.41
2018-03-30T08:10:18.971Z,16.42
2018-03-30T08:12:44.995Z,16.41
2018-03-30T08:15:10.999Z,16.42
2018-03-30T08:17:37.789Z,16.43
2018-03-30T08:20:03.802Z,16.43
2018-03-30T08:22:29.835Z,16.45
2018-03-30T08:24:55.910Z,16.44
2018-03-30T08:27:21.964Z,16.46
2018-03-30T08:29:48.088Z,16.49
2018-03-30T08:32:14.173Z,16.53
2018-03-30T08:34:40.922Z,16.54
2018-03-30T08:37:07.838Z,16.59
2018-03-30T08:39:33.858Z,16.61
2018-03-30T08:41:59.954Z,16.64
2018-03-30T08:44:26.000Z,16.66
2018-03-30T08:46:52.033Z,16.69
2018-03-30T08:49:18.871Z,16.71
2018-03-30T08:51:44.920Z,16.75
2018-03-30T08:54:11.001Z,16.79
2018-03-30T08:56:37.124Z,16.81
2018-03-30T08:59:03.243Z,16.82
2018-03-30T09:01:29.284Z,16.84
2018-03-30T09:03:55.381Z,16.84
2018-03-30T09:06:21.538Z,16.85
2018-03-30T09:08:47.735Z,16.83
2018-03-30T09:11:13.758Z,16.85
2018-03-30T09:13:39.800Z,16.85
2018-03-30T09:16:05.812Z,16.86
2018-03-30T09:18:31.954Z,16.88
2018-03-30T09:20:58.850Z,16.89
2018-03-30T09:23:25.621Z,16.88
2018-03-30T09:25:51.671Z,16.88
2018-03-30T09:28:17.802Z,16.89
2018-03-30T09:30:43.838Z,16.88
2018-03-30T09:33:16.805Z,16.87
2018-03-30T09:35:42.839Z,16.88
2018-03-30T09:38:09.037Z,16.88
2018-03-30T09:40:35.070Z,16.88
2018-03-30T09:43:01.081Z,16.87
2018-03-30T09:45:27.213Z,16.88
2018-03-30T09:47:53.240Z,16.89
2018-03-30T09:50:19.292Z,16.91
2018-03-30T09:52:45.318Z,16.92
2018-03-30T09:55:11.311Z,16.91
2018-03-30T09:57:37.346Z,16.92
2018-03-30T10:00:03.567Z,16.91
2018-03-30T10:02:29.655Z,16.92
2018-03-30T10:05:00.321Z,16.94
2018-03-30T10:07:26.342Z,16.95
2018-03-30T10:09:52.433Z,16.96
2018-03-30T10:12:19.205Z,16.98
2018-03-30T10:14:45.234Z,17.00
2018-03-30T10:17:11.300Z,17.02
2018-03-30T10:19:38.179Z,17.05
2018-03-30T10:22:04.290Z,17.08
2018-03-30T10:24:31.101Z,17.14
2018-03-30T10:26:58.200Z,17.15
2018-03-30T10:29:24.280Z,17.17
2018-03-30T10:31:51.076Z,17.19
2018-03-30T10:34:17.344Z,17.20
2018-03-30T10:36:44.163Z,17.21
2018-03-30T10:39:10.378Z,17.23
2018-03-30T10:41:36.394Z,17.23
2018-03-30T10:44:02.541Z,17.28
2018-03-30T10:46:28.569Z,17.35
2018-03-30T10:48:54.665Z,17.42
2018-03-30T10:51:20.684Z,17.47
2018-03-30T10:53:46.743Z,17.47
2018-03-30T10:56:12.842Z,17.47
2018-03-30T10:58:38.857Z,17.44
2018-03-30T11:01:04.969Z,17.49
2018-03-30T11:03:31.013Z,17.59
2018-03-30T11:05:57.303Z,17.68
2018-03-30T11:08:24.065Z,17.73
2018-03-30T11:10:50.110Z,17.72
2018-03-30T11:13:16.144Z,17.78
2018-03-30T11:15:42.293Z,17.84
2018-03-30T11:18:08.291Z,17.89
2018-03-30T11:20:34.389Z,17.94
2018-03-30T11:23:00.408Z,18.01
2018-03-30T11:25:26.422Z,18.05
2018-03-30T11:27:53.201Z,18.11
2018-03-30T11:30:19.278Z,18.17
2018-03-30T11:32:45.303Z,18.20
2018-03-30T11:35:12.191Z,18.25
2018-03-30T11:37:38.201Z,18.30
2018-03-30T11:40:04.217Z,18.35
2018-03-30T11:42:30.246Z,18.39
2018-03-30T11:44:56.260Z,18.44
2018-03-30T11:47:22.388Z,18.50
2018-03-30T11:49:48.418Z,18.53
2018-03-30T11:52:14.483Z,18.58
2018-03-30T11:54:40.838Z,18.62
2018-03-30T11:57:07.656Z,18.67
2018-03-30T11:59:33.655Z,18.72
2018-03-30T12:01:59.744Z,18.74
2018-03-30T12:04:25.781Z,18.79
2018-03-30T12:06:51.834Z,18.84
2018-03-30T12:09:17.900Z,18.90
2018-03-30T12:11:44.654Z,18.94
2018-03-30T12:14:10.645Z,18.97
2018-03-30T12:16:36.736Z,19.02
2018-03-30T12:19:02.814Z,19.07
2018-03-30T12:21:29.573Z,19.12
2018-03-30T12:23:55.587Z,19.18
2018-03-30T12:26:22.453Z,19.22
2018-03-30T12:28:48.594Z,19.26
2018-03-30T12:31:14.606Z,19.30
2018-03-30T12:33:40.618Z,19.33
2018-03-30T12:36:06.691Z,19.38
2018-03-30T12:38:33.497Z,19.42
2018-03-30T12:40:59.557Z,19.46
2018-03-30T12:43:25.540Z,19.52
2018-03-30T12:45:51.673Z,19.55
2018-03-30T12:48:17.736Z,19.59
2018-03-30T12:50:45.222Z,19.62
2018-03-30T12:53:11.999Z,19.67
2018-03-30T12:55:38.027Z,19.71
2018-03-30T12:58:04.038Z,19.74
2018-03-30T13:00:30.070Z,19.79
2018-03-30T13:02:56.069Z,19.82
2018-03-30T13:05:22.110Z,19.87
2018-03-30T13:07:48.135Z,19.91
2018-03-30T13:10:14.142Z,19.94
2018-03-30T13:12:40.194Z,19.99
2018-03-30T13:15:06.249Z,20.02
2018-03-30T13:17:33.124Z,20.10
2018-03-30T13:19:59.209Z,20.19
2018-03-30T13:22:25.292Z,20.29
2018-03-30T13:24:51.331Z,20.52
2018-03-30T13:27:17.457Z,21.16
2018-03-30T13:29:43.488Z,22.34
2018-03-30T13:32:09.540Z,23.27
2018-03-30T13:34:35.617Z,25.53
2018-03-30T13:37:02.374Z,27.78
2018-03-30T13:39:28.385Z,24.60
2018-03-30T13:41:54.509Z,22.21
2018-03-30T13:44:20.534Z,21.33
2018-03-30T13:46:46.582Z,20.88
2018-03-30T13:49:12.707Z,20.73
2018-03-30T13:51:57.982Z,20.66
2018-03-30T13:54:27.347Z,20.63
2018-03-30T13:56:55.275Z,20.60
2018-03-30T13:59:23.986Z,20.59
2018-03-30T14:01:54.980Z,20.55
2018-03-30T14:04:44.296Z,20.51
2018-03-30T14:10:16.968Z,20.45
2018-03-30T14:12:43.030Z,20.40
2018-03-30T14:15:10.908Z,20.39
2018-03-30T14:17:39.776Z,20.36
2018-03-30T14:20:28.558Z,20.34
2018-03-30T14:22:59.425Z,20.28
2018-03-30T14:25:28.416Z,20.27
2018-03-30T14:28:02.323Z,20.23
2018-03-30T14:30:29.374Z,20.17
2018-03-30T14:33:04.647Z,20.17
2018-03-30T14:35:42.092Z,20.16
2018-03-30T14:38:12.269Z,20.10
2018-03-30T14:40:40.850Z,20.07
2018-03-30T14:43:15.450Z,20.01
2018-03-30T14:45:44.193Z,20.00
2018-03-30T14:48:16.322Z,19.97
2018-03-30T14:50:45.025Z,19.89
2018-03-30T14:53:22.114Z,19.89
2018-03-30T14:58:55.645Z,19.89
2018-03-30T15:07:43.287Z,19.73
2018-03-30T15:13:15.735Z,19.72
2018-03-30T15:16:06.791Z,19.63
2018-03-30T15:18:39.874Z,19.60
2018-03-30T15:21:08.461Z,19.56
2018-03-30T15:23:36.050Z,19.55
2018-03-30T15:26:12.853Z,19.53
2018-03-30T15:28:42.939Z,19.48
2018-03-30T15:34:22.418Z,19.35
2018-03-30T15:36:56.342Z,19.35
2018-03-30T15:39:22.379Z,19.29
2018-03-30T15:41:49.254Z,19.28
2018-03-30T15:44:16.031Z,19.25
2018-03-30T15:46:48.949Z,19.19
2018-03-30T15:49:14.997Z,19.17
2018-03-30T15:51:45.483Z,19.08
2018-03-30T15:54:11.373Z,19.84
2018-03-30T15:57:19.350Z,20.10
2018-03-30T16:15:41.239Z,19.48
2018-03-30T16:18:07.310Z,19.40
2018-03-30T16:20:33.941Z,19.26
2018-03-30T16:22:59.839Z,19.17
2018-03-30T16:25:25.738Z,19.15
2018-03-30T16:27:51.649Z,19.08
2018-03-30T16:30:17.560Z,19.05
2018-03-30T16:32:43.699Z,19.03
2018-03-30T16:35:09.664Z,18.98
2018-03-30T16:37:35.593Z,18.95
2018-03-30T16:40:02.286Z,18.93
2018-03-30T16:42:28.248Z,18.90
2018-03-30T16:44:54.141Z,18.86
2018-03-30T16:47:20.054Z,18.83
2018-03-30T16:49:45.966Z,18.78
2018-03-30T16:52:11.892Z,18.72
2018-03-30T16:54:37.835Z,18.70
2018-03-30T16:57:03.857Z,18.66
2018-03-30T16:59:29.806Z,18.66
2018-03-30T17:01:55.756Z,18.60
2018-03-30T17:04:21.756Z,18.59
2018-03-30T17:06:48.392Z,18.55
2018-03-30T17:09:15.029Z,18.52
2018-03-30T17:11:41.662Z,18.50
2018-03-30T17:14:08.383Z,18.48
2018-03-30T17:16:34.283Z,18.46
2018-03-30T17:19:00.190Z,18.41
2018-03-30T17:21:26.119Z,18.38
2018-03-30T17:23:52.048Z,18.35
2018-03-30T17:26:17.955Z,18.32
2018-03-30T17:28:43.848Z,18.30
2018-03-30T17:31:10.467Z,18.28
2018-03-30T17:33:37.898Z,18.25
2018-03-30T17:36:03.802Z,18.22
2018-03-30T17:38:29.706Z,18.20
2018-03-30T17:40:55.599Z,18.18
2018-03-30T17:43:22.230Z,18.15
2018-03-30T17:45:48.890Z,18.13
2018-03-30T17:48:14.809Z,18.12
2018-03-30T17:50:40.695Z,18.10
2018-03-30T17:53:06.602Z,18.07
2018-03-30T17:55:32.497Z,18.06
2018-03-30T17:57:58.422Z,18.04
2018-03-30T18:00:24.337Z,18.03
2018-03-30T18:02:50.249Z,18.01
2018-03-30T18:05:16.130Z,17.98
2018-03-30T18:07:42.844Z,17.98
2018-03-30T18:10:08.743Z,17.97
2018-03-30T18:12:34.691Z,17.95
2018-03-30T18:15:00.610Z,17.95
2018-03-30T18:17:26.536Z,17.93
2018-03-30T18:19:52.502Z,17.93
2018-03-30T18:22:19.185Z,17.91
2018-03-30T18:24:45.106Z,17.91
2018-03-30T18:27:11.030Z,17.88
2018-03-30T18:29:36.927Z,17.87
2018-03-30T18:32:02.864Z,17.85
2018-03-30T18:34:28.859Z,17.85
2018-03-30T18:36:54.818Z,17.83
2018-03-30T18:39:20.733Z,17.81
2018-03-30T18:41:46.752Z,17.81
2018-03-30T18:44:13.496Z,17.80
2018-03-30T18:46:39.413Z,17.79
2018-03-30T18:49:05.314Z,17.77
2018-03-30T18:51:31.229Z,17.77
2018-03-30T18:53:57.153Z,17.75
2018-03-30T18:56:23.095Z,17.74
2018-03-30T18:58:48.997Z,17.73
2018-03-30T19:01:14.876Z,17.72
2018-03-30T19:03:41.540Z,17.71
2018-03-30T19:06:07.467Z,17.70
2018-03-30T19:08:33.410Z,17.69
2018-03-30T19:10:59.277Z,17.69
2018-03-30T19:13:25.976Z,17.68
2018-03-30T19:15:51.888Z,17.66
2018-03-30T19:18:17.781Z,17.65
2018-03-30T19:20:43.684Z,17.64
2018-03-30T19:23:10.457Z,17.63
2018-03-30T19:25:36.375Z,17.63
2018-03-30T19:28:02.279Z,17.61
2018-03-30T19:30:28.354Z,17.61
2018-03-30T19:32:54.254Z,17.61
2018-03-30T19:35:20.160Z,17.58
2018-03-30T19:37:46.103Z,17.58
2018-03-30T19:40:12.016Z,17.57
2018-03-30T19:42:37.914Z,17.56
2018-03-30T19:45:03.829Z,17.55
2018-03-30T19:47:30.453Z,17.55
2018-03-30T19:49:56.350Z,17.55
2018-03-30T19:52:22.282Z,17.53
2018-03-30T19:54:48.214Z,17.53
2018-03-30T19:57:14.122Z,17.51
2018-03-30T19:59:40.019Z,17.50
2018-03-30T20:02:06.029Z,17.49
2018-03-30T20:04:31.921Z,17.48
2018-03-30T20:06:57.803Z,17.48
2018-03-30T20:09:23.806Z,17.47
2018-03-30T20:11:49.702Z,17.46
2018-03-30T20:14:16.351Z,17.46
2018-03-30T20:16:42.282Z,17.46
2018-03-30T20:19:08.205Z,17.45
2018-03-30T20:21:34.124Z,17.44
2018-03-30T20:24:00.053Z,17.44
2018-03-30T20:26:25.958Z,17.43
2018-03-30T20:28:51.913Z,17.42
2018-03-30T20:31:17.810Z,17.42
2018-03-30T20:33:43.762Z,17.41
2018-03-30T20:36:09.774Z,17.41
2018-03-30T20:38:35.678Z,17.40
2018-03-30T20:41:01.588Z,17.40
2018-03-30T20:43:27.526Z,17.39
2018-03-30T20:45:53.469Z,17.38
2018-03-30T20:48:20.140Z,17.37
2018-03-30T20:50:47.024Z,17.37
2018-03-30T20:53:12.956Z,17.36
2018-03-30T20:55:38.958Z,17.36
2018-03-30T20:58:06.425Z,17.35
2018-03-30T21:00:33.245Z,17.34
2018-03-30T21:02:59.194Z,17.34
2018-03-30T21:05:25.113Z,17.33
2018-03-30T21:07:51.014Z,17.33
2018-03-30T21:10:16.930Z,17.32
2018-03-30T21:12:42.891Z,17.32
2018-03-30T21:15:08.938Z,17.31
2018-03-30T21:17:35.637Z,17.31
2018-03-30T21:20:01.657Z,17.31
2018-03-30T21:22:27.574Z,17.31
2018-03-30T21:24:53.501Z,17.30
2018-03-30T21:27:19.380Z,17.30
2018-03-30T21:29:46.054Z,17.29
2018-03-30T21:32:11.990Z,17.29
2018-03-30T21:34:37.906Z,17.28
2018-03-30T21:37:03.789Z,17.27
2018-03-30T21:39:30.422Z,17.27
2018-03-30T21:41:57.176Z,17.27
2018-03-30T21:44:23.882Z,17.27
2018-03-30T21:46:49.822Z,17.26
2018-03-30T21:49:16.460Z,17.26
2018-03-30T21:51:43.102Z,17.24
2018-03-30T21:54:09.769Z,17.25
2018-03-30T21:56:35.690Z,17.24
2018-03-30T21:59:01.678Z,17.23
2018-03-30T22:01:27.599Z,17.23
2018-03-30T22:03:54.250Z,17.22
2018-03-30T22:06:20.889Z,17.21
2018-03-30T22:08:46.818Z,17.21
2018-03-30T22:11:12.731Z,17.21
2018-03-30T22:13:39.370Z,17.21
2018-03-30T22:16:06.006Z,17.20
2018-03-30T22:18:32.626Z,17.20
2018-03-30T22:20:59.328Z,17.19
2018-03-30T22:23:25.225Z,17.19
2018-03-30T22:25:51.132Z,17.18
2018-03-30T22:28:17.034Z,17.18
2018-03-30T22:30:43.735Z,17.17
2018-03-30T22:33:09.648Z,17.17
2018-03-30T22:35:35.545Z,17.16
2018-03-30T22:38:01.418Z,17.16
2018-03-30T22:40:28.084Z,17.15
2018-03-30T22:42:54.709Z,17.15
2018-03-30T22:45:21.353Z,17.15
2018-03-30T22:47:47.980Z,17.14
2018-03-30T22:50:14.629Z,17.14
2018-03-30T22:52:41.270Z,17.14
2018-03-30T22:55:07.912Z,17.13
2018-03-30T22:57:34.548Z,17.13
2018-03-30T23:00:01.171Z,17.13
2018-03-30T23:02:27.841Z,17.13
2018-03-30T23:04:53.775Z,17.11
2018-03-30T23:07:19.693Z,17.11
2018-03-30T23:09:45.584Z,17.10
2018-03-30T23:12:12.269Z,17.10
2018-03-30T23:14:38.163Z,17.10
2018-03-30T23:17:04.076Z,17.09
2018-03-30T23:19:29.966Z,17.09
2018-03-30T23:21:55.886Z,17.08
2018-03-30T23:24:22.524Z,17.08
2018-03-30T23:26:49.175Z,17.07
2018-03-30T23:29:15.830Z,17.07
2018-03-30T23:31:42.517Z,17.06
2018-03-30T23:34:08.412Z,17.06
2018-03-30T23:36:35.076Z,17.06
2018-03-30T23:39:00.974Z,17.05
2018-03-30T23:41:26.874Z,17.05
2018-03-30T23:43:53.522Z,17.04
2018-03-30T23:46:19.420Z,17.04
2018-03-30T23:48:46.071Z,17.03
2018-03-30T23:51:12.704Z,17.03
2018-03-30T23:53:39.331Z,17.02
2018-03-30T23:56:05.973Z,17.02
2018-03-30T23:58:32.588Z,17.02
